Time;durP1;ratioP1;P1;durP2;ratioP2;P2;SDS_P1;SDS_P2;PMS_P1;PMS_P2;Temp;Humidity;BMP_temperature;BMP_pressure;BME280_temperature;BME280_humidity;BME280_pressure;Samples;Min_cycle;Max_cycle;Signal;HPM_P1;HPM_P2
2022/10/19 00:01:41;;;;;;;7.97;1.53;;;11.60;99.90;;;;;;5001023;28;20285;-81
2022/10/19 00:04:07;;;;;;;5.83;1.10;;;11.60;99.90;;;;;;4989216;28;20642;-82
2022/10/19 00:06:35;;;;;;;5.63;1.53;;;11.60;99.90;;;;;;4983962;28;20325;-81
2022/10/19 00:09:10;;;;;;;5.35;1.00;;;11.60;99.90;;;;;;5000020;28;20289;-81
2022/10/19 00:11:39;;;;;;;2.38;1.00;;;11.70;99.90;;;;;;4988125;28;20116;-81
2022/10/19 00:14:07;;;;;;;3.03;1.20;;;11.60;99.90;;;;;;5000496;28;20038;-82
2022/10/19 00:16:36;;;;;;;4.85;1.10;;;11.60;99.90;;;;;;4999957;28;20056;-82
2022/10/19 00:19:06;;;;;;;4.05;1.08;;;11.60;99.90;;;;;;4983590;28;20375;-81
2022/10/19 00:21:32;;;;;;;5.68;1.25;;;11.60;99.90;;;;;;4996675;28;20121;-82
2022/10/19 00:23:58;;;;;;;7.43;1.48;;;11.60;99.90;;;;;;5001708;28;20558;-81
2022/10/19 00:26:23;;;;;;;7.75;1.30;;;11.60;99.90;;;;;;5007485;28;20497;-81
2022/10/19 00:28:51;;;;;;;4.43;1.15;;;11.60;99.90;;;;;;4998099;28;20038;-81
2022/10/19 00:31:17;;;;;;;5.32;1.27;;;11.60;99.90;;;;;;4996607;28;20065;-81
2022/10/19 00:33:47;;;;;;;6.80;1.80;;;11.60;99.90;;;;;;4990855;28;20045;-81
2022/10/19 00:36:26;;;;;;;5.45;1.40;;;11.60;99.90;;;;;;4986147;28;20085;-81
2022/10/19 00:38:53;;;;;;;10.30;1.58;;;11.60;99.90;;;;;;5000480;28;20100;-81
2022/10/19 00:41:21;;;;;;;6.47;2.08;;;11.60;99.90;;;;;;5001036;28;20045;-81
2022/10/19 00:43:58;;;;;;;4.85;1.25;;;11.60;99.90;;;;;;4982725;28;20073;-81
2022/10/19 00:46:26;;;;;;;8.82;1.45;;;11.60;99.90;;;;;;5004703;28;20124;-81
2022/10/19 00:48:56;;;;;;;2.75;1.20;;;11.60;99.90;;;;;;4997545;28;20114;-81
2022/10/19 00:51:23;;;;;;;5.80;1.20;;;11.60;99.90;;;;;;5003497;28;20124;-82
2022/10/19 00:53:49;;;;;;;7.75;1.27;;;11.60;99.90;;;;;;4979741;28;20038;-81
2022/10/19 00:56:15;;;;;;;5.10;1.20;;;11.60;99.90;;;;;;4994821;28;20050;-81
2022/10/19 00:58:42;;;;;;;4.82;1.25;;;11.60;99.90;;;;;;5006891;28;20042;-81
2022/10/19 01:01:15;;;;;;;6.63;1.45;;;11.60;99.90;;;;;;4996931;28;20038;-81
2022/10/19 01:03:41;;;;;;;6.18;1.30;;;11.60;99.90;;;;;;5006706;28;20038;-81
2022/10/19 01:06:07;;;;;;;5.28;1.05;;;11.60;99.90;;;;;;4977935;28;20065;-81
2022/10/19 01:08:33;;;;;;;8.48;1.40;;;11.60;99.90;;;;;;4994404;28;20038;-81
2022/10/19 01:11:17;;;;;;;4.95;1.58;;;11.60;99.90;;;;;;5003669;28;20557;-81
2022/10/19 01:13:58;;;;;;;4.30;1.55;;;11.60;99.90;;;;;;4997476;28;20053;-82
2022/10/19 01:16:45;;;;;;;5.20;1.50;;;11.60;99.90;;;;;;5011180;28;20042;-81
2022/10/19 01:19:30;;;;;;;4.93;1.13;;;11.70;99.90;;;;;;5000338;28;20436;-81
2022/10/19 01:22:01;;;;;;;4.28;1.48;;;11.70;99.90;;;;;;4996483;28;20038;-81
2022/10/19 01:24:49;;;;;;;7.47;1.70;;;11.70;99.90;;;;;;4994328;28;20410;-81
2022/10/19 01:27:43;;;;;;;5.95;1.60;;;11.70;99.90;;;;;;5003008;28;20409;-81
2022/10/19 01:30:34;;;;;;;6.50;1.40;;;11.80;99.90;;;;;;4998292;28;20469;-81
2022/10/19 01:33:24;;;;;;;4.28;1.40;;;11.70;99.90;;;;;;5000559;28;20046;-81
2022/10/19 01:36:04;;;;;;;3.30;1.00;;;11.80;99.90;;;;;;5000319;28;20129;-81
2022/10/19 01:38:41;;;;;;;5.55;1.20;;;11.80;99.90;;;;;;5001358;28;20049;-81
2022/10/19 01:41:26;;;;;;;5.10;1.30;;;11.80;99.90;;;;;;4992257;28;20061;-81
2022/10/19 01:44:07;;;;;;;8.82;1.60;;;11.80;99.90;;;;;;4999794;28;20034;-81
2022/10/19 01:46:43;;;;;;;7.25;1.02;;;11.80;99.90;;;;;;4990915;28;20046;-81
2022/10/19 01:49:31;;;;;;;3.33;0.88;;;11.80;99.90;;;;;;5001656;28;20140;-81
2022/10/19 01:52:00;;;;;;;3.38;1.10;;;11.80;99.90;;;;;;4988492;28;20492;-81
2022/10/19 01:54:29;;;;;;;7.90;1.50;;;11.70;99.90;;;;;;4996302;28;20101;-81
2022/10/19 01:56:58;;;;;;;4.00;1.05;;;11.70;99.90;;;;;;4983930;28;20156;-81
2022/10/19 01:59:25;;;;;;;5.35;0.98;;;11.70;99.90;;;;;;4980606;28;20558;-81
2022/10/19 02:01:52;;;;;;;6.40;0.82;;;11.70;99.90;;;;;;4984169;28;20038;-81
2022/10/19 02:04:21;;;;;;;6.28;1.00;;;11.70;99.90;;;;;;4996088;28;20033;-81
2022/10/19 02:06:50;;;;;;;5.70;1.02;;;11.80;99.90;;;;;;5005843;28;20034;-81
2022/10/19 02:09:22;;;;;;;6.55;0.80;;;11.70;99.90;;;;;;5005981;28;20413;-81
2022/10/19 02:11:55;;;;;;;7.72;0.88;;;11.80;99.90;;;;;;4982033;28;20050;-81
2022/10/19 02:14:28;;;;;;;5.30;0.75;;;11.90;99.90;;;;;;4996501;28;20045;-81
2022/10/19 02:17:06;;;;;;;5.15;0.80;;;11.80;99.90;;;;;;4997421;28;20045;-81
2022/10/19 02:19:33;;;;;;;4.72;0.55;;;11.90;99.90;;;;;;4998508;28;20101;-81
2022/10/19 02:21:59;;;;;;;4.53;0.80;;;11.90;99.90;;;;;;4991667;28;20391;-81
2022/10/19 02:24:24;;;;;;;4.13;0.75;;;11.90;99.90;;;;;;4971434;28;20069;-81
2022/10/19 02:26:52;;;;;;;3.30;0.60;;;11.80;99.90;;;;;;5005494;28;20037;-81
2022/10/19 02:29:18;;;;;;;8.50;0.88;;;11.80;99.90;;;;;;5005998;28;20053;-81
2022/10/19 02:31:44;;;;;;;5.18;0.90;;;11.80;99.90;;;;;;4979877;28;20038;-80
2022/10/19 02:34:11;;;;;;;7.72;0.85;;;11.80;99.90;;;;;;4988864;28;20068;-81
2022/10/19 02:36:36;;;;;;;4.50;0.82;;;11.80;99.90;;;;;;4966891;28;20092;-81
2022/10/19 02:39:03;;;;;;;6.07;0.90;;;11.70;99.90;;;;;;5001775;28;20076;-81
2022/10/19 02:41:34;;;;;;;;;;;11.70;99.90;;;;;;4999407;28;20034;-81
2022/10/19 02:44:15;;;;;;;7.13;0.95;;;11.70;99.90;;;;;;4998842;28;19967;-81
2022/10/19 02:46:51;;;;;;;6.82;1.00;;;11.60;99.90;;;;;;4975892;28;20135;-81
2022/10/19 02:49:17;;;;;;;5.60;0.80;;;11.60;99.90;;;;;;5007590;28;20065;-81
2022/10/19 02:52:00;;;;;;;6.45;0.95;;;11.60;99.90;;;;;;4985327;28;20041;-81
2022/10/19 02:54:27;;;;;;;5.80;0.88;;;11.50;99.90;;;;;;4998183;28;20494;-81
2022/10/19 02:56:53;;;;;;;4.93;1.10;;;11.50;99.90;;;;;;4995380;28;20054;-81
2022/10/19 02:59:19;;;;;;;6.47;1.10;;;11.50;99.90;;;;;;4997641;28;20089;-81
2022/10/19 03:01:44;;;;;;;6.22;1.05;;;12.00;99.90;;;;;;4969800;28;20506;-81
2022/10/19 03:04:10;;;;;;;6.65;1.15;;;11.40;99.90;;;;;;5002401;28;20490;-81
2022/10/19 03:06:36;;;;;;;6.27;0.93;;;11.40;99.90;;;;;;4986429;28;20085;-81
2022/10/19 03:09:02;;;;;;;4.90;0.87;;;11.30;99.90;;;;;;4999666;28;20698;-81
2022/10/19 03:11:27;;;;;;;7.47;1.20;;;11.20;99.90;;;;;;5005259;28;20280;-81
2022/10/19 03:13:53;;;;;;;7.10;1.60;;;11.20;99.90;;;;;;4991435;28;20538;-81
2022/10/19 03:16:19;;;;;;;6.33;1.13;;;11.10;99.90;;;;;;4976573;28;20047;-81
2022/10/19 03:18:47;;;;;;;5.75;0.90;;;11.10;99.90;;;;;;5003024;28;20273;-82
2022/10/19 03:21:13;;;;;;;4.65;1.00;;;11.00;99.90;;;;;;4999872;28;20038;-81
2022/10/19 03:23:39;;;;;;;5.45;0.80;;;10.90;99.90;;;;;;4997915;28;20038;-81
2022/10/19 03:26:06;;;;;;;5.03;0.75;;;10.80;99.90;;;;;;5002456;28;20044;-81
2022/10/19 03:28:32;;;;;;;6.97;1.02;;;10.80;99.90;;;;;;5000866;28;20061;-81
2022/10/19 03:30:58;;;;;;;6.28;0.80;;;10.70;99.90;;;;;;4990683;28;20034;-81
2022/10/19 03:33:24;;;;;;;7.57;0.82;;;10.60;99.90;;;;;;5005738;28;20041;-81
2022/10/19 03:35:50;;;;;;;5.82;1.10;;;10.60;99.90;;;;;;4987780;28;20494;-81
2022/10/19 03:38:16;;;;;;;6.65;1.20;;;10.50;99.90;;;;;;5003073;28;20042;-80
2022/10/19 03:40:42;;;;;;;4.97;0.90;;;11.30;99.90;;;;;;5008385;28;20038;-81
2022/10/19 03:43:08;;;;;;;5.05;0.90;;;10.60;99.90;;;;;;4985626;28;20041;-81
2022/10/19 03:45:33;;;;;;;9.57;1.50;;;10.70;99.90;;;;;;4981477;28;20561;-81
2022/10/19 03:47:59;;;;;;;6.07;0.80;;;10.70;99.90;;;;;;5005781;28;20045;-81
2022/10/19 03:50:25;;;;;;;4.53;0.98;;;10.70;99.90;;;;;;4998636;28;20502;-81
2022/10/19 03:52:50;;;;;;;4.10;0.77;;;10.70;99.90;;;;;;5008901;28;20057;-81
2022/10/19 03:55:16;;;;;;;5.93;0.83;;;10.80;99.90;;;;;;4985628;28;20385;-81
2022/10/19 03:57:42;;;;;;;8.65;1.05;;;10.80;99.90;;;;;;4996310;28;20133;-81
2022/10/19 04:00:09;;;;;;;8.27;1.20;;;10.80;99.90;;;;;;4982056;28;20443;-81
2022/10/19 04:02:35;;;;;;;5.75;0.85;;;10.90;99.90;;;;;;4994231;28;20288;-81
2022/10/19 04:05:00;;;;;;;7.43;1.60;;;10.90;99.90;;;;;;4994553;28;20039;-81
2022/10/19 04:07:26;;;;;;;6.35;0.80;;;10.90;99.90;;;;;;4982969;28;20327;-81
2022/10/19 04:09:52;;;;;;;5.60;0.63;;;10.90;99.90;;;;;;5001697;28;20049;-81
2022/10/19 04:12:17;;;;;;;13.33;1.23;;;11.00;99.90;;;;;;4987017;28;20038;-83
2022/10/19 04:14:43;;;;;;;7.17;1.17;;;11.00;99.90;;;;;;4972792;28;20372;-82
2022/10/19 04:17:09;;;;;;;8.50;1.40;;;11.10;99.90;;;;;;4984613;28;20038;-81
2022/10/19 04:19:35;;;;;;;;;;;11.10;99.90;;;;;;5012386;28;20044;-82
2022/10/19 04:22:01;;;;;;;6.65;1.27;;;11.10;99.90;;;;;;5002246;28;19917;-81
2022/10/19 04:24:27;;;;;;;8.25;1.17;;;11.10;99.90;;;;;;4982152;28;20030;-79
2022/10/19 04:26:54;;;;;;;6.13;1.35;;;11.10;99.90;;;;;;4986608;28;20042;-80
2022/10/19 04:29:23;;;;;;;15.30;1.40;;;11.10;99.90;;;;;;5002681;28;20037;-80
2022/10/19 04:31:50;;;;;;;7.40;1.23;;;11.10;99.90;;;;;;5002986;28;20088;-81
2022/10/19 04:34:16;;;;;;;12.07;1.95;;;11.10;99.90;;;;;;4988102;28;20097;-81
2022/10/19 04:36:41;;;;;;;11.63;1.40;;;11.10;99.90;;;;;;4997786;28;20059;-81
2022/10/19 04:39:07;;;;;;;7.78;1.20;;;11.10;99.90;;;;;;4979781;28;20042;-81
2022/10/19 04:41:33;;;;;;;7.80;0.95;;;11.20;99.90;;;;;;4997559;28;20042;-80
2022/10/19 04:44:01;;;;;;;6.22;0.98;;;11.10;99.90;;;;;;5003119;28;20101;-80
2022/10/19 04:46:28;;;;;;;8.73;1.75;;;11.10;99.90;;;;;;5026464;28;20057;-80
2022/10/19 04:48:55;;;;;;;8.50;1.23;;;11.10;99.90;;;;;;4985145;28;20073;-82
2022/10/19 04:51:22;;;;;;;4.78;0.93;;;11.00;99.90;;;;;;4999829;28;20092;-82
2022/10/19 04:53:47;;;;;;;;;;;11.10;99.90;;;;;;4989089;28;20037;-81
2022/10/19 04:56:20;;;;;;;12.18;1.33;;;11.10;99.90;;;;;;4960546;28;20306;-80
2022/10/19 04:58:46;;;;;;;8.32;1.10;;;11.10;99.90;;;;;;4999594;28;20038;-80
2022/10/19 05:01:14;;;;;;;8.25;1.02;;;11.10;99.90;;;;;;4995909;28;20423;-80
2022/10/19 05:03:40;;;;;;;6.80;1.20;;;11.00;99.90;;;;;;4984798;28;20041;-80
2022/10/19 05:06:07;;;;;;;9.20;1.40;;;11.00;99.90;;;;;;4998653;28;20037;-80
2022/10/19 05:08:32;;;;;;;9.77;1.42;;;11.10;99.90;;;;;;5001507;28;20478;-80
2022/10/19 05:11:10;;;;;;;10.80;1.42;;;11.10;99.90;;;;;;4984722;28;20180;-80
2022/10/19 05:13:36;;;;;;;10.60;1.27;;;11.10;99.90;;;;;;4979719;28;20042;-80
2022/10/19 05:16:04;;;;;;;5.97;1.00;;;11.10;99.90;;;;;;4998304;28;20049;-80
2022/10/19 05:18:30;;;;;;;6.20;1.00;;;11.10;99.90;;;;;;4983368;28;20493;-80
2022/10/19 05:21:13;;;;;;;9.38;1.58;;;11.10;99.90;;;;;;4997749;28;20037;-80
2022/10/19 05:23:40;;;;;;;4.78;1.00;;;11.10;99.90;;;;;;5000593;28;20040;-80
2022/10/19 05:26:12;;;;;;;9.82;1.23;;;11.10;99.90;;;;;;4988518;28;20100;-80
2022/10/19 05:28:38;;;;;;;5.53;1.20;;;11.00;99.90;;;;;;4984060;28;20494;-80
2022/10/19 05:31:25;;;;;;;5.35;0.95;;;11.10;99.90;;;;;;4999228;28;20132;-80
2022/10/19 05:33:51;;;;;;;7.60;1.40;;;11.00;99.90;;;;;;4999197;28;20172;-80
2022/10/19 05:36:26;;;;;;;5.15;1.00;;;11.10;99.90;;;;;;4968497;28;20121;-80
2022/10/19 05:38:56;;;;;;;7.95;1.05;;;11.00;99.90;;;;;;4994245;28;20172;-80
2022/10/19 05:41:23;;;;;;;6.68;1.27;;;11.10;99.90;;;;;;4987049;28;20042;-79
2022/10/19 05:43:55;;;;;;;5.57;1.05;;;11.10;99.90;;;;;;4985308;28;20037;-80
2022/10/19 05:46:21;;;;;;;11.38;1.45;;;11.10;99.90;;;;;;4977530;28;20100;-80
2022/10/19 05:48:47;;;;;;;;;;;11.00;99.90;;;;;;4993432;28;20050;-80
2022/10/19 05:51:16;;;;;;;8.57;1.10;;;11.00;99.90;;;;;;4996409;28;19925;-80
2022/10/19 05:53:42;;;;;;;11.77;1.60;;;11.40;99.90;;;;;;4999550;28;20376;-80
2022/10/19 05:56:13;;;;;;;8.52;1.05;;;11.00;99.90;;;;;;4999046;28;20061;-80
2022/10/19 05:58:39;;;;;;;10.30;1.02;;;11.00;99.90;;;;;;5018950;28;20038;-79
2022/10/19 06:01:05;;;;;;;7.80;1.27;;;11.10;99.90;;;;;;4992278;28;20383;-80
2022/10/19 06:03:31;;;;;;;3.92;1.15;;;11.00;99.90;;;;;;4985740;28;20041;-80
2022/10/19 06:05:57;;;;;;;10.55;1.10;;;11.10;99.90;;;;;;5000571;28;20120;-80
2022/10/19 06:08:23;;;;;;;10.27;1.23;;;11.10;99.90;;;;;;4992558;28;20038;-80
2022/10/19 06:10:49;;;;;;;;;;;11.10;99.90;;;;;;4998451;28;20816;-80
2022/10/19 06:13:17;;;;;;;6.43;1.70;;;11.10;99.90;;;;;;4982526;28;20436;-80
2022/10/19 06:15:43;;;;;;;9.60;1.23;;;11.10;99.90;;;;;;4995431;28;20501;-80
2022/10/19 06:18:11;;;;;;;4.90;0.93;;;11.10;99.90;;;;;;4968856;28;20061;-80
2022/10/19 06:20:38;;;;;;;10.07;1.48;;;11.10;99.90;;;;;;4994218;28;20285;-80
2022/10/19 06:23:05;;;;;;;5.50;1.05;;;11.10;99.90;;;;;;4999924;28;20060;-80
2022/10/19 06:25:31;;;;;;;5.47;1.20;;;11.10;99.90;;;;;;4996661;28;20115;-80
2022/10/19 06:27:58;;;;;;;8.50;1.23;;;11.10;99.90;;;;;;5004725;28;20052;-80
2022/10/19 06:30:24;;;;;;;6.28;1.38;;;11.20;99.90;;;;;;4980979;28;20031;-80
2022/10/19 06:32:50;;;;;;;9.63;1.98;;;11.10;99.90;;;;;;5004069;28;20402;-80
2022/10/19 06:35:16;;;;;;;9.25;1.20;;;11.20;99.90;;;;;;4997235;28;20030;-80
2022/10/19 06:37:42;;;;;;;10.40;1.20;;;11.20;99.90;;;;;;4984511;28;20101;-80
2022/10/19 06:40:09;;;;;;;11.55;2.60;;;11.20;99.90;;;;;;4979594;28;20035;-80
2022/10/19 06:42:38;;;;;;;8.80;1.40;;;11.20;99.90;;;;;;4994062;28;20038;-80
2022/10/19 06:45:06;;;;;;;8.40;1.58;;;11.20;99.90;;;;;;4985677;28;20436;-80
2022/10/19 06:47:33;;;;;;;9.82;1.67;;;11.20;99.90;;;;;;4994005;28;20054;-81
2022/10/19 06:49:59;;;;;;;9.68;2.47;;;11.20;99.90;;;;;;4976909;28;20038;-80
2022/10/19 06:52:24;;;;;;;10.68;2.05;;;11.20;99.90;;;;;;4999939;28;20038;-80
2022/10/19 06:54:50;;;;;;;9.37;1.47;;;11.20;99.90;;;;;;4996568;28;20037;-78
2022/10/19 06:57:16;;;;;;;7.90;1.50;;;11.30;99.90;;;;;;4980406;28;20657;-80
2022/10/19 06:59:41;;;;;;;5.57;1.10;;;11.30;99.90;;;;;;4996371;28;20364;-80
2022/10/19 07:02:10;;;;;;;9.77;2.10;;;11.30;99.90;;;;;;4970543;28;20290;-80
2022/10/19 07:04:36;;;;;;;7.32;1.13;;;11.30;99.90;;;;;;5003704;28;20038;-79
2022/10/19 07:07:02;;;;;;;5.27;1.03;;;11.40;99.90;;;;;;5003789;28;20568;-80
2022/10/19 07:09:27;;;;;;;14.80;1.48;;;11.40;99.90;;;;;;4986025;28;20342;-80
2022/10/19 07:11:53;;;;;;;7.03;0.90;;;11.40;99.90;;;;;;4981396;28;20057;-80
2022/10/19 07:14:19;;;;;;;3.97;1.20;;;11.50;99.90;;;;;;5001691;28;20038;-80
2022/10/19 07:16:45;;;;;;;5.50;0.70;;;11.50;99.90;;;;;;4984048;28;20125;-80
2022/10/19 07:19:12;;;;;;;8.93;1.08;;;11.50;99.90;;;;;;4988819;28;20312;-80
2022/10/19 07:21:40;;;;;;;6.65;0.88;;;11.50;99.90;;;;;;4990905;28;20044;-81
2022/10/19 07:24:07;;;;;;;7.68;1.33;;;11.60;99.90;;;;;;4989583;28;20117;-80
2022/10/19 07:26:33;;;;;;;;;;;11.60;99.90;;;;;;4982353;28;20043;-80
2022/10/19 07:28:59;;;;;;;4.85;0.90;;;11.70;99.90;;;;;;5005576;28;19917;-80
2022/10/19 07:31:27;;;;;;;8.07;1.10;;;11.70;99.90;;;;;;5001905;28;20046;-80
2022/10/19 07:33:54;;;;;;;6.22;0.80;;;11.80;99.90;;;;;;4983827;28;20034;-81
2022/10/19 07:36:21;;;;;;;7.18;1.00;;;11.80;99.90;;;;;;5001668;28;20042;-80
2022/10/19 07:38:46;;;;;;;7.60;1.15;;;11.90;99.90;;;;;;4977930;28;20041;-80
2022/10/19 07:41:14;;;;;;;12.50;1.53;;;11.90;99.90;;;;;;4988910;28;20033;-80
2022/10/19 07:43:42;;;;;;;6.00;1.30;;;11.90;99.90;;;;;;4985627;28;20038;-79
2022/10/19 07:46:11;;;;;;;5.43;0.90;;;11.90;99.90;;;;;;4993298;28;20383;-80
2022/10/19 07:48:36;;;;;;;4.68;0.85;;;11.90;99.90;;;;;;4996586;28;20050;-80
2022/10/19 07:51:05;;;;;;;5.10;0.83;;;11.90;99.90;;;;;;5004053;28;20068;-80
2022/10/19 07:53:31;;;;;;;11.52;2.50;;;11.90;99.90;;;;;;5009027;28;20053;-80
2022/10/19 07:56:22;;;;;;;9.48;1.35;;;12.00;99.90;;;;;;4999162;28;20057;-80
2022/10/19 07:58:49;;;;;;;6.28;1.27;;;12.00;99.90;;;;;;5002959;28;20045;-80
2022/10/19 08:01:17;;;;;;;5.13;1.15;;;12.10;99.90;;;;;;5002132;28;20121;-80
2022/10/19 08:03:43;;;;;;;8.23;1.10;;;12.20;99.90;;;;;;5002625;28;20048;-80
2022/10/19 08:06:13;;;;;;;7.05;1.55;;;12.10;99.90;;;;;;5002948;28;20045;-80
2022/10/19 08:08:39;;;;;;;10.77;1.30;;;12.20;99.90;;;;;;4989418;28;20488;-80
2022/10/19 08:11:08;;;;;;;7.30;1.15;;;12.20;99.90;;;;;;4982696;28;20053;-80
2022/10/19 08:13:34;;;;;;;9.20;2.03;;;12.20;99.90;;;;;;5006436;28;20513;-80
2022/10/19 08:16:00;;;;;;;7.63;2.03;;;12.20;99.90;;;;;;4996034;28;20046;-80
2022/10/19 08:18:26;;;;;;;13.57;1.30;;;12.20;99.90;;;;;;5002944;28;20041;-81
2022/10/19 08:20:52;;;;;;;6.73;1.03;;;12.30;99.90;;;;;;5003788;28;20041;-81
2022/10/19 08:23:17;;;;;;;6.95;1.20;;;12.30;99.90;;;;;;4966910;28;20720;-81
2022/10/19 08:25:43;;;;;;;10.03;1.27;;;12.30;99.90;;;;;;4997455;28;20042;-81
2022/10/19 08:28:09;;;;;;;9.80;2.83;;;12.30;99.90;;;;;;5002106;28;20307;-80
2022/10/19 08:30:36;;;;;;;11.40;5.03;;;12.40;99.90;;;;;;5006323;28;20343;-80
2022/10/19 08:33:04;;;;;;;9.85;2.35;;;12.40;99.90;;;;;;5001132;28;20395;-80
2022/10/19 08:35:30;;;;;;;8.48;1.75;;;12.40;99.90;;;;;;4984432;28;20073;-75
2022/10/19 08:37:56;;;;;;;9.75;1.60;;;12.40;99.90;;;;;;5000863;28;20038;-75
2022/10/19 08:40:24;;;;;;;;;;;12.40;99.90;;;;;;5010080;28;20120;-76
2022/10/19 08:43:16;;;;;;;5.40;1.48;;;12.50;99.90;;;;;;5009229;28;19991;-76
2022/10/19 08:45:52;;;;;;;7.85;1.42;;;12.50;99.90;;;;;;4994918;28;20050;-76
2022/10/19 08:48:28;;;;;;;9.60;1.97;;;12.60;99.90;;;;;;5004521;28;21456;-76
2022/10/19 08:50:56;;;;;;;6.70;1.08;;;12.60;99.90;;;;;;4999365;28;20125;-76
2022/10/19 08:53:48;;;;;;;9.98;1.30;;;12.60;99.90;;;;;;5000156;28;20050;-76
2022/10/19 08:56:54;;;;;;;9.32;1.08;;;12.60;99.90;;;;;;5027072;28;20088;-76
2022/10/19 08:59:35;;;;;;;8.25;1.65;;;12.60;99.90;;;;;;4947553;28;20066;-76
2022/10/19 09:02:17;;;;;;;10.13;0.90;;;12.70;99.90;;;;;;4995919;28;20042;-76
2022/10/19 09:04:54;;;;;;;5.88;1.08;;;12.70;99.90;;;;;;4996732;28;20045;-76
2022/10/19 09:07:23;;;;;;;;;;;12.80;99.90;;;;;;5002659;28;20057;-77
2022/10/19 09:10:16;;;;;;;8.80;3.72;;;12.90;99.90;;;;;;5008220;28;19965;-77
2022/10/19 09:13:05;;;;;;;19.05;9.65;;;12.90;99.90;;;;;;4996117;28;20045;-77
2022/10/19 09:15:43;;;;;;;6.25;0.77;;;12.90;99.90;;;;;;5000611;28;20073;-77
2022/10/19 09:18:27;;;;;;;7.32;1.48;;;12.90;99.90;;;;;;5004979;28;20034;-76
2022/10/19 09:21:14;;;;;;;6.38;1.23;;;13.00;99.90;;;;;;5000726;28;20042;-76
2022/10/19 09:24:14;;;;;;;9.68;1.13;;;13.00;99.90;;;;;;4996318;28;20042;-76
2022/10/19 09:26:52;;;;;;;5.53;1.15;;;13.00;99.90;;;;;;4999770;28;20046;-76
2022/10/19 09:29:27;;;;;;;5.55;1.17;;;12.90;99.90;;;;;;5006154;28;20714;-76
2022/10/19 09:31:56;;;;;;;7.88;1.45;;;12.90;99.90;;;;;;5003089;28;20446;-76
2022/10/19 09:34:40;;;;;;;3.65;0.60;;;12.90;99.90;;;;;;5001180;28;20112;-76
2022/10/19 09:37:06;;;;;;;6.43;0.80;;;12.90;99.90;;;;;;5002977;28;20065;-76
2022/10/19 09:39:32;;;;;;;7.33;1.30;;;12.90;99.90;;;;;;4985865;28;20046;-76
2022/10/19 09:42:29;;;;;;;7.13;1.05;;;13.00;99.90;;;;;;4987702;28;20115;-76
2022/10/19 09:44:56;;;;;;;7.57;0.80;;;13.00;99.90;;;;;;5003440;28;20030;-76
2022/10/19 09:47:41;;;;;;;6.68;0.93;;;13.10;99.90;;;;;;4993696;28;20498;-76
2022/10/19 09:50:08;;;;;;;4.47;0.85;;;13.10;99.90;;;;;;5006025;28;20050;-76
2022/10/19 09:52:39;;;;;;;5.25;0.90;;;13.10;99.90;;;;;;5002137;28;20047;-76
2022/10/19 09:55:06;;;;;;;4.75;1.08;;;13.10;99.90;;;;;;4987037;28;20042;-76
2022/10/19 09:57:32;;;;;;;6.03;0.90;;;13.10;99.90;;;;;;5004546;28;20057;-76
2022/10/19 09:59:57;;;;;;;6.20;1.30;;;13.00;99.90;;;;;;4987431;28;20042;-76
2022/10/19 10:02:31;;;;;;;6.53;1.00;;;13.00;99.90;;;;;;4984113;28;20494;-76
2022/10/19 10:05:13;;;;;;;4.63;0.75;;;13.00;99.90;;;;;;5003478;28;20497;-76
2022/10/19 10:07:39;;;;;;;8.63;1.40;;;13.00;99.90;;;;;;4997053;28;20184;-76
2022/10/19 10:10:35;;;;;;;5.88;0.82;;;13.00;99.90;;;;;;4980640;28;20038;-77
2022/10/19 10:13:01;;;;;;;5.57;1.00;;;13.00;99.90;;;;;;4985190;28;20042;-77
2022/10/19 10:15:40;;;;;;;6.90;1.27;;;13.10;99.90;;;;;;5001928;28;20168;-76
2022/10/19 10:18:12;;;;;;;5.60;1.35;;;13.00;99.90;;;;;;4983929;28;20394;-76
2022/10/19 10:20:54;;;;;;;6.70;1.13;;;13.10;99.90;;;;;;5000318;28;20068;-76
2022/10/19 10:23:24;;;;;;;9.15;1.00;;;13.20;99.90;;;;;;5000300;28;20065;-76
2022/10/19 10:25:55;;;;;;;7.07;1.50;;;13.30;99.90;;;;;;4984819;28;20402;-76
2022/10/19 10:28:24;;;;;;;6.40;1.00;;;13.40;99.90;;;;;;4985837;28;20222;-76
2022/10/19 10:30:59;;;;;;;4.38;0.82;;;13.60;99.90;;;;;;4980778;28;21070;-76
2022/10/19 10:33:27;;;;;;;5.68;1.02;;;13.90;99.90;;;;;;5000296;28;20076;-76
2022/10/19 10:35:56;;;;;;;5.35;0.80;;;14.10;99.90;;;;;;4980651;28;20054;-76
2022/10/19 10:38:48;;;;;;;5.97;0.80;;;14.20;99.90;;;;;;5002091;28;20065;-76
2022/10/19 10:41:19;;;;;;;8.10;1.33;;;14.40;99.90;;;;;;4992058;28;20099;-76
2022/10/19 10:44:02;;;;;;;5.90;0.90;;;14.40;99.90;;;;;;4981294;28;20473;-76
2022/10/19 10:46:34;;;;;;;5.78;0.77;;;14.60;99.90;;;;;;5001911;28;20037;-76
2022/10/19 10:49:16;;;;;;;4.55;1.08;;;14.60;99.90;;;;;;5004592;28;20117;-76
2022/10/19 10:51:49;;;;;;;4.75;1.17;;;14.70;99.90;;;;;;5007238;28;20121;-76
2022/10/19 10:54:21;;;;;;;5.57;1.05;;;14.70;99.90;;;;;;5000328;28;20042;-76
2022/10/19 10:57:12;;;;;;;7.03;0.95;;;14.60;99.90;;;;;;4993672;28;20426;-76
2022/10/19 10:59:47;;;;;;;4.32;0.70;;;14.70;99.90;;;;;;5001722;28;20038;-76
2022/10/19 11:02:27;;;;;;;4.78;0.82;;;14.60;99.90;;;;;;5000154;28;20498;-76
2022/10/19 11:05:00;;;;;;;5.75;0.98;;;14.80;99.90;;;;;;5002049;28;20140;-76
2022/10/19 11:07:29;;;;;;;6.30;0.85;;;14.80;99.90;;;;;;4994274;28;20102;-76
2022/10/19 11:09:59;;;;;;;6.53;1.02;;;14.70;99.90;;;;;;4994926;28;20390;-76
2022/10/19 11:12:41;;;;;;;5.18;0.88;;;14.60;99.90;;;;;;5006116;28;20049;-76
2022/10/19 11:15:23;;;;;;;6.03;0.95;;;14.70;99.90;;;;;;4983936;28;20038;-76
2022/10/19 11:18:18;;;;;;;6.07;0.75;;;14.70;99.90;;;;;;4981835;28;20057;-76
2022/10/19 11:21:33;;;;;;;4.88;0.93;;;14.90;99.90;;;;;;4986793;28;20042;-76
2022/10/19 11:24:17;;;;;;;7.00;0.85;;;15.10;99.90;;;;;;4990179;28;20125;-77
2022/10/19 11:26:58;;;;;;;6.65;0.90;;;15.00;99.90;;;;;;4995511;28;20060;-76
2022/10/19 11:29:47;;;;;;;5.70;1.35;;;15.00;99.90;;;;;;4978661;28;20038;-74
2022/10/19 11:32:52;;;;;;;4.47;0.93;;;14.90;99.90;;;;;;4983377;28;20502;-76
2022/10/19 11:35:53;;;;;;;4.47;0.82;;;14.80;99.90;;;;;;4998428;28;20176;-75
2022/10/19 11:38:38;;;;;;;7.25;1.17;;;14.70;99.90;;;;;;4994161;28;20389;-76
2022/10/19 11:41:12;;;;;;;4.18;0.98;;;14.60;99.90;;;;;;4999386;28;20443;-76
2022/10/19 11:43:56;;;;;;;6.35;1.33;;;14.50;99.90;;;;;;4995926;28;20489;-76
2022/10/19 11:46:44;;;;;;;3.88;0.90;;;14.40;99.90;;;;;;4999328;28;20056;-76
2022/10/19 11:49:18;;;;;;;8.07;1.52;;;14.40;99.90;;;;;;5003470;28;20042;-76
2022/10/19 11:51:45;;;;;;;3.83;0.73;;;14.50;99.90;;;;;;5002345;28;20494;-76
2022/10/19 11:54:30;;;;;;;6.53;0.90;;;14.60;99.90;;;;;;4983700;28;20048;-74
2022/10/19 11:57:07;;;;;;;6.78;1.05;;;14.60;99.90;;;;;;5002082;28;20053;-74
2022/10/19 11:59:58;;;;;;;6.18;1.15;;;14.40;99.90;;;;;;5000698;28;20047;-74
2022/10/19 12:02:46;;;;;;;5.07;0.98;;;14.40;99.90;;;;;;5002977;28;20402;-75
2022/10/19 12:05:39;;;;;;;3.80;0.88;;;14.50;99.90;;;;;;5004558;28;20046;-75
2022/10/19 12:08:28;;;;;;;5.80;1.13;;;14.50;99.90;;;;;;4994687;28;20115;-75
2022/10/19 12:11:24;;;;;;;9.52;1.02;;;14.40;99.90;;;;;;4986404;28;20100;-74
2022/10/19 12:13:58;;;;;;;5.05;1.35;;;14.50;99.90;;;;;;5005652;28;20053;-74
2022/10/19 12:16:41;;;;;;;7.78;1.00;;;14.80;99.90;;;;;;4998454;28;20118;-75
2022/10/19 12:19:17;;;;;;;5.03;0.77;;;15.20;99.90;;;;;;4979742;28;20037;-74
2022/10/19 12:21:44;;;;;;;5.63;1.10;;;15.10;99.90;;;;;;5025289;28;20104;-74
2022/10/19 12:24:15;;;;;;;5.72;0.60;;;14.90;99.90;;;;;;5003620;28;20026;-74
2022/10/19 12:26:42;;;;;;;5.20;1.00;;;15.20;99.90;;;;;;5000162;28;20095;-74
2022/10/19 12:29:20;;;;;;;5.85;0.80;;;16.10;99.90;;;;;;5001714;28;20073;-75
2022/10/19 12:31:47;;;;;;;6.22;1.05;;;16.80;99.90;;;;;;5004600;28;20046;-75
2022/10/19 12:34:38;;;;;;;4.78;1.00;;;17.00;99.90;;;;;;4994375;28;20113;-75
2022/10/19 12:37:14;;;;;;;6.35;0.90;;;17.50;99.90;;;;;;5000064;28;20248;-75
2022/10/19 12:40:10;;;;;;;10.25;1.63;;;17.60;99.90;;;;;;5002807;28;20053;-75
2022/10/19 12:42:54;;;;;;;5.95;0.90;;;17.20;99.90;;;;;;5008399;28;20057;-75
2022/10/19 12:45:20;;;;;;;5.80;1.00;;;17.10;99.90;;;;;;4998094;28;20092;-75
2022/10/19 12:48:07;;;;;;;5.90;1.47;;;17.60;99.90;;;;;;5003847;28;20524;-76
2022/10/19 12:50:48;;;;;;;;;;;17.70;99.90;;;;;;5002208;28;20281;-76
2022/10/19 12:53:29;;;;;;;5.00;1.10;;;17.60;99.90;;;;;;5000882;28;19917;-76
2022/10/19 12:56:02;;;;;;;5.22;1.08;;;17.20;99.90;;;;;;4998016;28;20511;-76
2022/10/19 12:58:33;;;;;;;4.63;1.02;;;16.70;99.90;;;;;;5003443;28;20623;-76
2022/10/19 13:01:04;;;;;;;7.90;1.00;;;16.40;99.90;;;;;;4986307;28;20042;-76
2022/10/19 13:03:34;;;;;;;5.47;1.25;;;16.10;99.90;;;;;;5002160;28;20053;-76
2022/10/19 13:06:28;;;;;;;8.77;1.48;;;15.90;99.90;;;;;;5004434;28;20125;-76
2022/10/19 13:08:58;;;;;;;11.45;1.33;;;15.60;99.90;;;;;;4989230;28;20557;-75
2022/10/19 13:11:24;;;;;;;4.82;1.08;;;15.50;99.90;;;;;;4988794;28;20061;-75
2022/10/19 13:13:57;;;;;;;6.72;1.00;;;15.20;99.90;;;;;;4990228;28;20466;-75